Time;durP1;ratioP1;P1;durP2;ratioP2;P2;SDS_P1;SDS_P2;PMS_P1;PMS_P2;Temp;Humidity;BMP_temperature;BMP_pressure;BME280_temperature;BME280_humidity;BME280_pressure;Samples;Min_cycle;Max_cycle;Signal;HPM_P1;HPM_P2
2022/03/28 00:01:28;;;;;;;14.48;6.28;;;;;;;5.39;100.00;102813.34;2600124;46;20261;31
2022/03/28 00:04:05;;;;;;;23.90;7.10;;;;;;;5.38;100.00;102808.03;2600121;54;20094;31
2022/03/28 00:06:41;;;;;;;19.70;6.85;;;;;;;5.33;100.00;102796.63;2619313;36;21848;31
2022/03/28 00:14:34;;;;;;;19.63;6.35;;;;;;;5.17;100.00;102807.88;2599658;54;20109;31
2022/03/28 00:17:10;;;;;;;22.27;7.13;;;;;;;5.14;100.00;102807.97;2599968;47;21133;31
2022/03/28 00:19:47;;;;;;;16.97;7.13;;;;;;;5.05;100.00;102805.59;2599935;47;20380;31
2022/03/28 00:24:57;;;;;;;18.67;7.20;;;;;;;5.08;100.00;102794.84;2599862;54;20050;31
2022/03/28 00:27:34;;;;;;;22.90;7.00;;;;;;;4.99;100.00;102792.47;2599920;47;20080;31
2022/03/28 00:32:46;;;;;;;20.80;8.52;;;;;;;4.96;100.00;102792.59;2604703;39;21253;31
2022/03/28 00:37:55;;;;;;;25.23;7.47;;;;;;;5.02;100.00;102790.59;2600011;54;20042;31
2022/03/28 00:43:10;;;;;;;21.98;8.65;;;;;;;4.98;100.00;102785.41;2599959;54;20065;31
2022/03/28 00:45:47;;;;;;;20.43;8.23;;;;;;;4.89;100.00;102782.13;2599987;54;21220;31
2022/03/28 00:48:27;;;;;;;18.52;8.55;;;;;;;4.84;100.00;102773.38;2599901;47;20038;31
2022/03/28 00:51:02;;;;;;;26.10;9.33;;;;;;;4.87;100.00;102770.63;2600584;54;20927;31
2022/03/28 00:58:50;;;;;;;23.25;10.15;;;;;;;4.68;100.00;102764.16;2604672;39;20845;31
2022/03/28 01:01:27;;;;;;;22.70;10.80;;;;;;;4.67;100.00;102765.09;2599504;47;20101;31
2022/03/28 01:04:08;;;;;;;24.40;10.20;;;;;;;4.62;100.00;102759.03;2600795;47;20404;31
2022/03/28 01:12:00;;;;;;;23.63;9.48;;;;;;;4.59;100.00;102751.13;2600614;54;20628;31
2022/03/28 01:14:44;;;;;;;20.38;10.13;;;;;;;4.60;100.00;102742.22;2619266;36;20752;31
2022/03/28 01:25:24;;;;;;;;;;;;;;;4.43;100.00;102727.66;2600369;54;20356;31
2022/03/28 01:28:04;;;;;;;17.40;9.02;;;;;;;4.48;100.00;102735.50;2600871;46;19954;31
2022/03/28 01:38:21;;;;;;;21.33;9.68;;;;;;;4.26;100.00;102724.66;2599700;54;20477;31
2022/03/28 01:40:58;;;;;;;18.77;9.98;;;;;;;4.29;100.00;102721.91;2600007;47;20073;31
2022/03/28 01:43:36;;;;;;;18.90;9.40;;;;;;;4.29;100.00;102724.56;2600264;47;20046;31
2022/03/28 01:46:12;;;;;;;16.25;9.45;;;;;;;4.36;100.00;102712.78;2601072;47;21314;31
2022/03/28 01:54:02;;;;;;;17.27;9.45;;;;;;;4.23;100.00;102720.28;2599615;54;20454;31
2022/03/28 01:59:14;;;;;;;18.85;9.20;;;;;;;4.15;100.00;102709.00;2600282;54;20271;31
2022/03/28 02:04:22;;;;;;;17.80;9.53;;;;;;;4.21;100.00;102703.47;2600274;54;21209;31
2022/03/28 02:09:32;;;;;;;20.23;10.38;;;;;;;4.21;100.00;102701.69;2602295;39;20314;31
2022/03/28 02:14:44;;;;;;;32.85;13.57;;;;;;;4.14;100.00;102692.13;2600061;54;20104;31
2022/03/28 02:19:54;;;;;;;22.02;11.75;;;;;;;4.18;100.00;102683.13;2600673;54;19946;31
2022/03/28 02:25:04;;;;;;;25.40;12.70;;;;;;;4.16;100.00;102676.09;2600338;54;21528;31
2022/03/28 02:30:17;;;;;;;24.70;11.45;;;;;;;4.21;100.00;102677.69;2600575;54;20080;31
2022/03/28 02:38:01;;;;;;;23.40;11.90;;;;;;;4.16;100.00;102670.75;2600536;54;21650;31
2022/03/28 02:40:38;;;;;;;34.88;12.00;;;;;;;4.13;100.00;102674.41;2619418;36;20093;31
2022/03/28 02:48:29;;;;;;;54.55;11.10;;;;;;;4.24;100.00;102666.06;2599767;54;20258;31
2022/03/28 02:53:39;;;;;;;31.75;10.23;;;;;;;4.11;100.00;102657.59;2610109;31;20741;31
2022/03/28 02:58:48;;;;;;;14.10;9.30;;;;;;;4.19;100.00;102649.34;2600256;54;20393;31
2022/03/28 03:01:29;;;;;;;52.85;10.13;;;;;;;4.28;100.00;102648.16;2600581;47;20935;31
2022/03/28 03:04:09;;;;;;;34.08;10.30;;;;;;;4.27;100.00;102635.75;2600215;46;20093;31
2022/03/28 03:09:18;;;;;;;31.42;9.82;;;;;;;4.21;100.00;102635.06;2601593;54;20005;31
2022/03/28 03:11:55;;;;;;;72.85;10.88;;;;;;;4.15;100.00;102629.03;2601010;54;20042;31
2022/03/28 03:19:46;;;;;;;39.15;9.48;;;;;;;4.16;100.00;102623.66;2599949;54;20490;31
2022/03/28 03:24:55;;;;;;;42.17;10.70;;;;;;;4.31;100.00;102622.28;2605884;39;21484;31
2022/03/28 03:32:59;;;;;;;32.50;9.57;;;;;;;4.39;100.00;102614.03;2599916;54;20034;31
2022/03/28 03:38:11;;;;;;;23.50;9.57;;;;;;;4.58;100.00;102622.25;2600075;54;20489;31
2022/03/28 03:43:21;;;;;;;35.13;9.67;;;;;;;4.60;100.00;102608.88;2599861;54;21212;31
2022/03/28 03:45:58;;;;;;;31.27;8.90;;;;;;;4.72;100.00;102600.44;2601437;39;20283;31
2022/03/28 03:48:35;;;;;;;59.40;9.32;;;;;;;4.70;100.00;102597.81;2600728;54;21621;31
2022/03/28 03:51:10;;;;;;;31.48;9.38;;;;;;;4.75;100.00;102600.31;2600571;47;21302;31
2022/03/28 03:53:49;;;;;;;49.20;9.40;;;;;;;4.54;100.00;102604.63;2601271;39;20267;31
2022/03/28 03:56:25;;;;;;;16.75;7.43;;;;;;;4.63;100.00;102601.63;2601868;39;20847;31
2022/03/28 03:59:02;;;;;;;61.50;9.50;;;;;;;4.54;100.00;102602.81;2600445;47;20888;31
2022/03/28 04:06:51;;;;;;;66.63;9.93;;;;;;;4.48;100.00;102602.19;2601856;39;21233;31
2022/03/28 04:12:24;;;;;;;60.80;10.30;;;;;;;4.66;100.00;102597.97;2600685;39;20359;31
2022/03/28 04:15:01;;;;;;;53.92;9.93;;;;;;;4.66;100.00;102601.50;2605078;39;20322;31
2022/03/28 04:17:42;;;;;;;56.42;10.23;;;;;;;4.60;100.00;102604.41;2605774;39;20351;31
2022/03/28 04:28:10;;;;;;;52.10;10.57;;;;;;;4.64;100.00;102607.81;2601464;39;20849;31
2022/03/28 04:30:50;;;;;;;39.50;10.10;;;;;;;4.55;100.00;102598.38;2601710;39;20886;31
2022/03/28 04:36:00;;;;;;;31.63;9.90;;;;;;;4.78;100.00;102600.19;2600044;54;21081;31
2022/03/28 04:38:35;;;;;;;45.25;10.30;;;;;;;4.79;100.00;102591.28;2621063;36;20826;31
2022/03/28 04:43:51;;;;;;;32.90;10.75;;;;;;;4.79;100.00;102585.94;2599841;54;20402;31
2022/03/28 04:46:31;;;;;;;27.58;10.80;;;;;;;4.87;100.00;102589.22;2601323;54;20558;31
2022/03/28 05:05:17;;;;;;;56.53;10.60;;;;;;;4.67;100.00;102568.59;2600695;54;20037;31
2022/03/28 05:07:53;;;;;;;27.63;10.15;;;;;;;4.74;100.00;102566.53;2601482;46;20080;31
2022/03/28 05:10:29;;;;;;;23.60;10.30;;;;;;;4.80;100.00;102566.34;2602959;39;20317;31
2022/03/28 05:18:18;;;;;;;43.85;10.70;;;;;;;4.65;100.00;102556.22;2599227;54;20104;31
2022/03/28 05:23:30;;;;;;;48.63;10.23;;;;;;;4.60;100.00;102560.88;2600975;54;20090;31
2022/03/28 05:26:08;;;;;;;40.33;9.88;;;;;;;4.62;100.00;102557.19;2600760;47;20046;31
2022/03/28 05:33:50;;;;;;;45.80;10.35;;;;;;;4.70;100.00;102548.94;2601200;54;20907;31
2022/03/28 05:36:29;;;;;;;94.20;13.85;;;;;;;4.48;100.00;102546.19;2601409;47;21335;31
2022/03/28 05:41:56;;;;;;;65.07;12.35;;;;;;;4.53;100.00;102555.78;2601215;54;20030;31
2022/03/28 05:44:32;;;;;;;52.30;11.38;;;;;;;4.58;100.00;102550.25;2600822;47;20333;31
2022/03/28 05:47:09;;;;;;;28.40;10.45;;;;;;;4.59;100.00;102543.97;2603398;39;20253;31
2022/03/28 05:55:07;;;;;;;57.10;11.73;;;;;;;4.65;100.00;102535.78;2600615;54;20442;31
2022/03/28 05:57:46;;;;;;;54.35;11.88;;;;;;;4.69;100.00;102539.19;2601263;47;20258;31
2022/03/28 06:05:43;;;;;;;100.35;12.45;;;;;;;4.64;100.00;102549.13;2600375;54;20034;31
2022/03/28 06:08:21;;;;;;;64.88;11.20;;;;;;;4.81;100.00;102551.19;2601720;47;20042;31
2022/03/28 06:10:56;;;;;;;50.80;10.05;;;;;;;4.81;100.00;102551.19;2612133;39;20853;31
2022/03/28 06:13:36;;;;;;;29.45;9.85;;;;;;;4.93;100.00;102552.53;2601033;47;20049;31
2022/03/28 06:18:45;;;;;;;19.40;7.80;;;;;;;5.12;100.00;102537.56;2601187;54;21184;31
2022/03/28 06:23:55;;;;;;;24.85;8.95;;;;;;;5.34;100.00;102550.06;2600892;54;21430;31
2022/03/28 06:29:14;;;;;;;18.83;8.17;;;;;;;5.38;100.00;102535.69;2600327;54;21091;31
2022/03/28 06:31:54;;;;;;;86.05;10.20;;;;;;;5.54;100.00;102542.13;2601407;46;20047;31
2022/03/28 06:39:43;;;;;;;26.73;7.82;;;;;;;5.21;100.00;102526.53;2600320;54;20034;31
2022/03/28 06:44:53;;;;;;;38.77;7.80;;;;;;;5.33;100.00;102525.19;2605925;39;20579;31
2022/03/28 06:47:33;;;;;;;54.25;8.27;;;;;;;5.39;100.00;102519.59;2601132;54;20533;31
2022/03/28 06:50:12;;;;;;;33.97;7.50;;;;;;;5.35;100.00;102519.78;2601242;54;20041;31
2022/03/28 06:58:00;;;;;;;;;;;;;;;5.29;100.00;102510.22;2606214;39;21148;31
2022/03/28 07:00:36;;;;;;;43.50;7.53;;;;;;;5.28;100.00;102497.78;2600649;47;19953;31
2022/03/28 07:08:29;;;;;;;16.40;5.50;;;;;;;5.46;100.00;102489.97;2600216;54;20403;31
2022/03/28 07:18:49;;;;;;;16.83;4.60;;;;;;;5.54;100.00;102494.06;2600833;54;21254;31
2022/03/28 07:24:02;;;;;;;12.65;4.15;;;;;;;5.88;100.00;102494.47;2600610;54;20045;31
2022/03/28 07:34:34;;;;;;;6.57;3.70;;;;;;;5.96;100.00;102495.88;2601501;39;20334;31
2022/03/28 07:39:47;;;;;;;5.93;3.25;;;;;;;6.34;100.00;102484.47;2600232;54;21150;31
2022/03/28 07:44:57;;;;;;;5.90;3.38;;;;;;;6.15;100.00;102489.75;2599970;54;20097;31
2022/03/28 07:47:34;;;;;;;6.25;3.15;;;;;;;6.31;100.00;102493.47;2602506;39;20271;31
2022/03/28 07:50:11;;;;;;;5.30;3.80;;;;;;;6.55;100.00;102488.00;2600882;47;20038;31
2022/03/28 07:52:50;;;;;;;11.60;4.28;;;;;;;6.49;100.00;102480.22;2600573;47;20061;31
2022/03/28 07:55:29;;;;;;;11.50;4.05;;;;;;;6.65;100.00;102483.06;2601165;46;20031;31
2022/03/28 08:05:54;;;;;;;7.68;4.28;;;;;;;6.71;100.00;102477.44;2601326;39;20314;31
2022/03/28 08:08:32;;;;;;;9.10;3.95;;;;;;;6.94;100.00;102479.03;2602232;39;20365;31
2022/03/28 08:11:10;;;;;;;6.25;3.95;;;;;;;6.89;100.00;102467.69;2602664;39;20949;31
2022/03/28 08:13:52;;;;;;;7.18;3.50;;;;;;;7.06;100.00;102456.16;2601764;39;20301;31
2022/03/28 08:16:28;;;;;;;9.70;4.32;;;;;;;7.31;100.00;102454.97;2600719;47;20038;31
2022/03/28 08:24:18;;;;;;;8.93;3.83;;;;;;;7.57;100.00;102451.00;2599803;54;20603;31
2022/03/28 08:29:34;;;;;;;8.80;4.25;;;;;;;7.29;100.00;102447.00;2599631;54;20339;31
2022/03/28 08:32:13;;;;;;;17.83;4.78;;;;;;;6.64;100.00;102454.56;2600563;47;20458;31
2022/03/28 08:37:28;;;;;;;6.33;4.30;;;;;;;7.22;100.00;102450.94;2604571;39;21118;31
2022/03/28 08:40:05;;;;;;;12.20;4.50;;;;;;;7.27;100.00;102454.25;2599517;54;21553;31
2022/03/28 08:45:15;;;;;;;14.00;7.15;;;;;;;7.65;100.00;102455.97;2599768;54;20419;31
2022/03/28 08:50:42;;;;;;;22.40;11.48;;;;;;;7.36;100.00;102452.91;2599894;54;20035;31
2022/03/28 08:55:52;;;;;;;23.73;14.40;;;;;;;7.64;100.00;102446.19;2607473;31;20284;31
2022/03/28 08:58:28;;;;;;;32.15;15.75;;;;;;;7.95;100.00;102434.78;2600432;47;20427;31
2022/03/28 09:03:44;;;;;;;27.88;13.93;;;;;;;8.23;100.00;102444.03;2599716;54;20097;31
2022/03/28 09:06:36;;;;;;;23.75;12.60;;;;;;;7.92;100.00;102445.66;2600469;54;20439;31
2022/03/28 09:14:29;;;;;;;19.55;10.75;;;;;;;8.43;100.00;102440.25;2599617;54;20034;31
2022/03/28 09:17:08;;;;;;;18.65;9.77;;;;;;;8.74;100.00;102423.38;2599713;47;20486;31
2022/03/28 09:22:19;;;;;;;22.85;12.10;;;;;;;8.03;100.00;102435.22;2599946;54;20082;31
2022/03/28 09:27:28;;;;;;;18.90;10.47;;;;;;;8.64;100.00;102427.50;2601189;54;20844;31
2022/03/28 09:37:53;;;;;;;14.13;8.80;;;;;;;8.48;100.00;102418.56;2601394;54;21609;31
2022/03/28 09:40:32;;;;;;;15.20;8.00;;;;;;;8.71;100.00;102410.13;2601146;54;20042;31
2022/03/28 09:48:25;;;;;;;13.13;7.30;;;;;;;8.66;100.00;102408.66;2599880;54;20120;31
2022/03/28 09:53:38;;;;;;;13.90;7.60;;;;;;;9.25;100.00;102400.84;2600372;54;20046;31
2022/03/28 10:03:58;;;;;;;15.02;8.73;;;;;;;9.84;100.00;102387.47;2600061;54;20093;31
2022/03/28 10:09:12;;;;;;;16.08;8.63;;;;;;;9.67;100.00;102385.78;2600409;54;21049;31
2022/03/28 10:11:51;;;;;;;17.50;9.52;;;;;;;9.53;100.00;102377.72;2600865;47;21441;31
2022/03/28 10:22:19;;;;;;;22.27;12.10;;;;;;;9.18;100.00;102384.19;2600240;54;20072;31
2022/03/28 10:27:32;;;;;;;19.27;10.75;;;;;;;9.74;100.00;102376.38;2600169;54;20269;31
2022/03/28 10:32:48;;;;;;;17.15;9.90;;;;;;;10.54;100.00;102369.69;2600082;54;19947;31
2022/03/28 10:35:24;;;;;;;20.20;10.13;;;;;;;10.47;100.00;102369.25;2600842;47;20882;31
2022/03/28 10:45:56;;;;;;;20.80;11.80;;;;;;;10.47;100.00;102353.94;2600693;54;20038;31
2022/03/28 10:48:40;;;;;;;19.77;11.63;;;;;;;10.20;100.00;102358.38;2601415;46;20610;31
2022/03/28 11:01:40;;;;;;;20.02;8.45;;;;;;;10.15;100.00;102343.38;2600305;54;20903;31
2022/03/28 11:04:24;;;;;;;18.00;7.90;;;;;;;10.62;100.00;102324.31;2600986;46;20876;31
2022/03/28 11:12:17;;;;;;;20.23;8.20;;;;;;;11.15;100.00;102321.72;2600211;54;21878;31
2022/03/28 11:17:26;;;;;;;14.05;8.80;;;;;;;10.82;100.00;102312.22;2600067;54;21217;31
2022/03/28 11:22:47;;;;;;;15.40;8.40;;;;;;;11.18;100.00;102313.41;2600255;54;20730;31
2022/03/28 11:25:34;;;;;;;20.33;9.85;;;;;;;11.49;100.00;102314.84;2600911;54;20620;31
2022/03/28 11:33:24;;;;;;;20.00;9.47;;;;;;;11.16;100.00;102302.75;2599688;54;20038;31
2022/03/28 11:38:39;;;;;;;22.38;9.73;;;;;;;10.84;100.00;102294.97;2606623;39;21277;31
2022/03/28 11:43:53;;;;;;;17.17;9.05;;;;;;;11.29;100.00;102296.50;2599539;54;20521;31
2022/03/28 11:46:32;;;;;;;18.77;9.07;;;;;;;11.82;100.00;102289.19;2599196;47;20057;31
2022/03/28 12:03:02;;;;;;;22.38;10.07;;;;;;;12.23;100.00;102244.91;2600384;39;20238;31
2022/03/28 12:11:15;;;;;;;17.10;9.20;;;;;;;12.37;100.00;102224.09;2603249;39;21143;31
2022/03/28 12:16:27;;;;;;;19.85;9.18;;;;;;;12.41;100.00;102214.78;2599297;54;20046;31
2022/03/28 12:19:08;;;;;;;21.05;10.23;;;;;;;12.59;100.00;102209.84;2599965;47;21131;31
2022/03/28 12:21:47;;;;;;;22.52;9.80;;;;;;;12.60;100.00;102204.34;2605963;39;20217;31
2022/03/28 12:27:07;;;;;;;24.10;10.27;;;;;;;12.58;100.00;102197.31;2599686;54;20044;31
2022/03/28 12:35:25;;;;;;;19.83;10.30;;;;;;;13.32;100.00;102183.50;2599803;47;20122;31
2022/03/28 13:14:29;;;;;;;23.25;11.15;;;;;;;13.17;100.00;102152.28;2606135;39;20331;31
2022/03/28 13:22:54;;;;;;;25.05;11.70;;;;;;;14.47;100.00;102148.88;2601423;54;20034;31
2022/03/28 13:30:47;;;;;;;23.85;12.52;;;;;;;13.92;100.00;102132.69;2600757;39;20243;31
2022/03/28 13:39:02;;;;;;;20.10;12.07;;;;;;;13.97;100.00;102119.66;2599971;54;20061;31
2022/03/28 13:44:27;;;;;;;27.35;12.70;;;;;;;13.52;100.00;102108.91;2606587;39;20157;31
2022/03/28 13:49:54;;;;;;;25.50;11.45;;;;;;;14.04;100.00;102095.63;2601059;54;20705;31
2022/03/28 13:57:48;;;;;;;28.07;11.40;;;;;;;13.63;100.00;102089.97;2600619;54;20042;31
2022/03/28 14:11:33;;;;;;;26.60;11.05;;;;;;;13.70;100.00;102084.06;2606696;39;21151;31
2022/03/28 14:19:54;;;;;;;22.33;9.70;;;;;;;14.56;100.00;102074.09;2601273;54;20416;31
2022/03/28 14:25:20;;;;;;;20.52;9.38;;;;;;;14.10;100.00;102064.47;2601106;54;21307;31
2022/03/28 14:36:02;;;;;;;20.70;9.17;;;;;;;15.48;100.00;102040.69;2600723;54;21461;31
2022/03/28 14:38:48;;;;;;;20.60;10.00;;;;;;;15.85;100.00;102041.94;2618792;36;20034;31
2022/03/28 14:49:52;;;;;;;25.80;10.00;;;;;;;15.35;100.00;102027.38;2600281;54;20291;31
2022/03/28 15:21:01;;;;;;;17.75;9.60;;;;;;;14.80;100.00;101991.69;2605449;39;21201;31
2022/03/28 15:23:41;;;;;;;18.35;9.90;;;;;;;15.18;100.00;101990.06;2599993;47;21335;31
2022/03/28 15:31:41;;;;;;;17.10;9.05;;;;;;;15.10;100.00;101979.06;2600632;54;20489;31
2022/03/28 15:42:59;;;;;;;19.95;8.65;;;;;;;14.71;100.00;101956.25;2601346;54;20065;31
2022/03/28 15:48:24;;;;;;;19.23;9.75;;;;;;;14.07;100.00;101946.47;2600598;54;21107;31
2022/03/28 15:53:49;;;;;;;18.48;9.30;;;;;;;14.69;100.00;101950.13;2600750;54;20788;31
2022/03/28 15:59:21;;;;;;;14.95;9.20;;;;;;;13.88;100.00;101943.63;2600433;54;20705;31
2022/03/28 16:07:51;;;;;;;18.40;10.60;;;;;;;14.18;100.00;101938.28;2606230;39;20526;31
2022/03/28 16:10:26;;;;;;;17.55;10.13;;;;;;;14.00;100.00;101935.31;2600743;47;21343;31
2022/03/28 17:40:41;;;;;;;18.60;12.70;;;;;;;11.21;100.00;101885.56;2599857;54;20034;31
2022/03/28 17:43:26;;;;;;;19.77;13.75;;;;;;;11.17;100.00;101877.81;2602013;39;20499;31
2022/03/28 18:51:06;;;;;;;24.13;16.50;;;;;;;8.86;100.00;101925.13;2600080;54;20044;31
2022/03/28 19:47:16;;;;;;;41.05;25.55;;;;;;;8.32;100.00;101896.31;2600309;54;20042;31
2022/03/28 19:57:39;;;;;;;43.65;26.50;;;;;;;8.29;100.00;101890.25;2601758;39;20854;31
2022/03/28 20:00:16;;;;;;;42.78;26.77;;;;;;;8.26;100.00;101891.31;2599080;47;20897;31
2022/03/28 20:02:55;;;;;;;42.15;26.98;;;;;;;8.19;100.00;101892.66;2599925;47;20446;31
2022/03/28 20:08:10;;;;;;;42.95;27.65;;;;;;;8.13;100.00;101887.69;2600668;39;21658;31
2022/03/28 20:10:47;;;;;;;46.83;29.13;;;;;;;8.14;100.00;101884.03;2599995;47;20063;31
2022/03/28 20:13:31;;;;;;;42.95;28.45;;;;;;;8.14;100.00;101881.34;2599847;47;21656;31
2022/03/28 20:19:05;;;;;;;44.17;28.40;;;;;;;8.05;100.00;101883.66;2601176;39;20620;31
2022/03/28 20:21:45;;;;;;;42.70;28.15;;;;;;;7.97;100.00;101879.72;2600306;47;20100;31
2022/03/28 20:29:41;;;;;;;47.30;28.67;;;;;;;7.86;100.00;101869.63;2599166;54;20421;31
2022/03/28 20:32:17;;;;;;;45.13;29.25;;;;;;;7.87;100.00;101868.69;2600383;47;20061;31
2022/03/28 20:40:28;;;;;;;46.10;27.70;;;;;;;7.72;100.00;101860.63;2598902;54;20079;31
2022/03/28 20:43:10;;;;;;;43.03;28.00;;;;;;;7.70;100.00;101854.50;2601874;39;20373;31
2022/03/28 20:45:50;;;;;;;45.55;27.95;;;;;;;7.63;100.00;101853.13;2599995;47;20804;31
2022/03/28 20:56:15;;;;;;;41.43;28.10;;;;;;;7.51;100.00;101851.22;2599049;54;20042;31
2022/03/28 21:01:26;;;;;;;44.25;28.95;;;;;;;7.44;100.00;101847.16;2601307;39;21124;31
2022/03/28 21:06:36;;;;;;;49.85;28.65;;;;;;;7.41;100.00;101842.00;2599684;54;22233;31
2022/03/28 21:11:46;;;;;;;45.30;27.60;;;;;;;7.31;100.00;101850.56;2599494;54;20061;31
2022/03/28 21:19:48;;;;;;;46.95;29.92;;;;;;;7.20;100.00;101853.03;2599830;54;20395;31
2022/03/28 21:22:35;;;;;;;50.45;28.70;;;;;;;7.17;100.00;101851.38;2600301;47;20683;31
2022/03/28 21:53:29;;;;;;;50.22;29.83;;;;;;;7.11;100.00;101849.06;2600438;54;20355;31
2022/03/28 22:04:32;;;;;;;50.50;29.63;;;;;;;6.90;100.00;101847.63;2601055;54;20808;31
2022/03/28 22:10:00;;;;;;;49.25;28.92;;;;;;;7.01;100.00;101837.16;2600407;54;20915;31
2022/03/28 22:26:44;;;;;;;55.92;32.13;;;;;;;6.96;100.00;101840.13;2600944;54;20049;31
2022/03/28 22:34:50;;;;;;;65.78;34.92;;;;;;;6.79;100.00;101843.75;2604699;39;20295;31
2022/03/28 22:37:32;;;;;;;67.30;34.30;;;;;;;6.82;100.00;101845.41;2600174;47;21107;31
2022/03/28 22:40:08;;;;;;;63.92;34.15;;;;;;;6.87;100.00;101839.78;2601057;54;21341;31
2022/03/28 22:48:07;;;;;;;64.82;34.80;;;;;;;6.84;100.00;101836.31;2600429;54;21187;31
2022/03/28 22:50:47;;;;;;;66.43;35.25;;;;;;;6.83;100.00;101834.59;2620688;36;20354;31
2022/03/28 22:58:39;;;;;;;59.38;32.67;;;;;;;6.88;100.00;101820.09;2608044;31;20367;31
2022/03/28 23:04:05;;;;;;;61.20;33.30;;;;;;;6.88;100.00;101820.09;2600910;54;20403;31
2022/03/28 23:14:45;;;;;;;64.55;33.97;;;;;;;6.79;100.00;101806.28;2599767;54;20008;31
2022/03/28 23:17:31;;;;;;;64.25;33.65;;;;;;;6.80;100.00;101813.38;2599847;47;21097;31
2022/03/28 23:53:54;;;;;;;62.90;35.07;;;;;;;7.24;100.00;101779.56;2609119;31;20924;31
2022/03/28 23:59:06;;;;;;;60.20;33.70;;;;;;;7.29;100.00;101769.47;2599730;54;20439;31
